createdAt,value
2023-02-22T00:02:20.750Z,60.95
2023-02-22T00:05:28.313Z,61.16
2023-02-22T00:08:36.543Z,61.03
2023-02-22T00:11:39.230Z,61.17
2023-02-22T00:14:42.267Z,61.16
2023-02-22T00:17:45.208Z,61.01
2023-02-22T00:20:47.895Z,61.16
2023-02-22T00:23:50.586Z,61.62
2023-02-22T00:26:57.485Z,61.22
2023-02-22T00:30:03.161Z,61.07
2023-02-22T00:33:06.151Z,61.26
2023-02-22T00:36:11.778Z,61.37
2023-02-22T00:39:14.143Z,61.27
2023-02-22T00:42:18.094Z,61.56
2023-02-22T00:45:22.993Z,61.66
2023-02-22T00:48:25.688Z,61.80
2023-02-22T00:51:28.859Z,61.78
2023-02-22T00:54:31.584Z,62.03
2023-02-22T00:57:36.886Z,62.19
2023-02-22T01:00:41.702Z,62.17
2023-02-22T01:03:44.150Z,62.35
2023-02-22T01:06:46.921Z,62.41
2023-02-22T01:09:49.217Z,62.34
2023-02-22T01:12:52.683Z,62.36
2023-02-22T01:15:56.758Z,62.60
2023-02-22T01:19:01.427Z,62.69
2023-02-22T01:22:05.483Z,62.71
2023-02-22T01:25:10.181Z,62.78
2023-02-22T01:28:13.904Z,62.59
2023-02-22T01:31:16.687Z,62.73
2023-02-22T01:34:19.474Z,62.73
2023-02-22T01:37:22.059Z,62.57
2023-02-22T01:40:33.843Z,62.57
2023-02-22T01:43:36.514Z,62.47
2023-02-22T01:46:38.848Z,62.62
2023-02-22T01:49:47.417Z,62.78
2023-02-22T01:52:51.002Z,62.53
2023-02-22T01:55:56.164Z,62.67
2023-02-22T01:59:03.432Z,62.71
2023-02-22T02:02:06.833Z,62.71
2023-02-22T02:05:10.341Z,62.72
2023-02-22T02:08:38.121Z,62.91
2023-02-22T02:11:41.845Z,63.15
2023-02-22T02:14:44.814Z,63.03
2023-02-22T02:17:49.518Z,63.06
2023-02-22T02:21:20.298Z,63.47
2023-02-22T02:24:50.393Z,63.26
2023-02-22T02:28:11.688Z,63.25
2023-02-22T02:31:49.377Z,63.39
2023-02-22T02:35:04.525Z,63.28
2023-02-22T02:38:28.855Z,63.36
2023-02-22T02:41:39.926Z,63.43
2023-02-22T02:44:49.895Z,63.26
2023-02-22T02:47:58.853Z,63.38
2023-02-22T02:51:06.780Z,63.46
2023-02-22T02:54:10.609Z,63.45
2023-02-22T02:57:13.294Z,63.65
2023-02-22T03:00:23.591Z,63.48
2023-02-22T03:03:37.886Z,63.68
2023-02-22T03:06:46.186Z,63.70
2023-02-22T03:10:06.149Z,63.76
2023-02-22T03:13:24.453Z,63.62
2023-02-22T03:16:30.178Z,63.68
2023-02-22T03:19:58.726Z,63.66
2023-02-22T03:23:07.349Z,63.84
2023-02-22T03:26:14.612Z,63.66
2023-02-22T03:29:20.571Z,63.86
2023-02-22T03:32:28.200Z,63.74
2023-02-22T03:35:35.144Z,64.26
2023-02-22T03:38:41.870Z,63.90
2023-02-22T03:41:51.442Z,63.79
2023-02-22T03:44:57.952Z,63.86
2023-02-22T03:48:31.583Z,63.88
2023-02-22T03:51:36.756Z,63.89
2023-02-22T03:54:40.244Z,63.82
2023-02-22T03:57:47.832Z,63.99
2023-02-22T04:00:53.191Z,63.63
2023-02-22T04:03:56.010Z,63.98
2023-02-22T04:06:58.444Z,63.80
2023-02-22T04:10:08.488Z,64.09
2023-02-22T04:13:14.731Z,64.15
2023-02-22T04:16:18.661Z,64.09
2023-02-22T04:19:21.578Z,64.01
2023-02-22T04:22:25.026Z,64.12
2023-02-22T04:25:28.031Z,63.98
2023-02-22T04:28:31.740Z,63.77
2023-02-22T04:31:35.549Z,63.87
2023-02-22T04:34:38.453Z,63.89
2023-02-22T04:37:40.864Z,64.03
2023-02-22T04:40:44.178Z,63.99
2023-02-22T04:43:46.941Z,64.07
2023-02-22T04:46:50.583Z,64.41
2023-02-22T04:49:52.937Z,64.33
2023-02-22T04:52:56.412Z,64.47
2023-02-22T04:56:01.340Z,64.62
2023-02-22T04:59:04.293Z,64.77
2023-02-22T05:02:07.076Z,64.77
2023-02-22T05:05:09.836Z,64.84
2023-02-22T05:08:12.197Z,64.87
2023-02-22T05:11:15.034Z,64.88
2023-02-22T05:14:17.654Z,64.86
2023-02-22T05:17:20.592Z,65.06
2023-02-22T05:20:29.892Z,64.90
2023-02-22T05:23:33.232Z,64.89
2023-02-22T05:26:35.662Z,65.09
2023-02-22T05:29:38.728Z,64.99
2023-02-22T05:32:41.077Z,65.02
2023-02-22T05:35:44.032Z,65.08
2023-02-22T05:38:46.420Z,65.19
2023-02-22T05:41:49.160Z,65.12
2023-02-22T05:44:51.484Z,65.14
2023-02-22T05:47:54.814Z,65.27
2023-02-22T05:50:58.107Z,65.50
2023-02-22T05:54:00.793Z,65.47
2023-02-22T05:57:03.245Z,65.53
2023-02-22T06:00:07.140Z,65.90
2023-02-22T06:03:15.609Z,65.74
2023-02-22T06:06:22.164Z,65.91
2023-02-22T06:09:24.781Z,65.92
2023-02-22T06:12:27.406Z,65.89
2023-02-22T06:15:30.292Z,66.05
2023-02-22T06:18:33.141Z,65.94
2023-02-22T06:21:35.503Z,65.82
2023-02-22T06:24:39.502Z,65.48
2023-02-22T06:27:42.150Z,65.24
2023-02-22T06:30:44.923Z,65.04
2023-02-22T06:33:47.349Z,65.15
2023-02-22T06:36:50.100Z,65.10
2023-02-22T06:39:52.395Z,64.82
2023-02-22T06:42:56.282Z,65.02
2023-02-22T06:45:58.626Z,64.40
2023-02-22T06:49:01.333Z,64.49
2023-02-22T06:52:07.439Z,63.99
2023-02-22T06:55:10.131Z,63.90
2023-02-22T06:58:12.404Z,63.39
2023-02-22T07:01:15.917Z,63.28
2023-02-22T07:04:18.591Z,63.09
2023-02-22T07:07:23.770Z,63.10
2023-02-22T07:10:29.319Z,62.78
2023-02-22T07:13:32.039Z,63.03
2023-02-22T07:16:34.689Z,62.64
2023-02-22T07:19:37.324Z,62.65
2023-02-22T07:22:39.913Z,62.30
2023-02-22T07:25:42.815Z,62.04
2023-02-22T07:28:45.380Z,62.41
2023-02-22T07:31:48.454Z,62.04
2023-02-22T07:34:51.070Z,61.76
2023-02-22T07:37:56.545Z,61.28
2023-02-22T07:40:59.160Z,61.33
2023-02-22T07:44:01.763Z,61.29
2023-02-22T07:47:04.070Z,60.20
2023-02-22T07:50:06.815Z,59.41
2023-02-22T07:53:18.599Z,58.76
2023-02-22T07:56:21.214Z,58.21
2023-02-22T07:59:23.568Z,57.13
2023-02-22T08:02:27.688Z,55.51
2023-02-22T08:05:32.027Z,52.38
2023-02-22T08:08:34.589Z,50.51
2023-02-22T08:11:37.214Z,48.29
2023-02-22T08:14:39.510Z,46.35
2023-02-22T08:17:42.136Z,44.95
2023-02-22T08:20:47.302Z,44.37
2023-02-22T08:23:54.417Z,43.32
2023-02-22T08:26:56.883Z,42.73
2023-02-22T08:29:59.732Z,40.80
2023-02-22T08:33:03.135Z,39.83
2023-02-22T08:36:06.130Z,39.40
2023-02-22T08:39:08.525Z,38.67
2023-02-22T08:42:11.230Z,39.56
2023-02-22T08:45:13.881Z,39.87
2023-02-22T08:48:17.732Z,39.77
2023-02-22T08:51:20.547Z,42.17
2023-02-22T08:54:23.755Z,42.89
2023-02-22T08:57:26.149Z,42.66
2023-02-22T09:00:33.003Z,43.26
2023-02-22T09:03:38.000Z,44.68
2023-02-22T09:06:42.195Z,43.90
2023-02-22T09:09:45.328Z,45.41
2023-02-22T09:12:48.174Z,45.19
2023-02-22T09:15:50.565Z,45.28
2023-02-22T09:18:53.186Z,46.33
2023-02-22T09:21:57.217Z,46.74
2023-02-22T09:25:02.587Z,46.51
2023-02-22T09:28:10.441Z,47.52
2023-02-22T09:31:13.307Z,47.43
2023-02-22T09:34:16.266Z,47.09
2023-02-22T09:37:18.953Z,47.06
2023-02-22T09:40:25.521Z,47.65
2023-02-22T09:43:37.242Z,48.49
2023-02-22T09:46:45.769Z,48.21
2023-02-22T09:50:04.055Z,48.63
2023-02-22T09:53:36.353Z,49.45
2023-02-22T09:56:39.588Z,49.95
2023-02-22T10:00:34.336Z,50.49
2023-02-22T10:03:49.105Z,51.02
2023-02-22T10:07:07.005Z,50.70
2023-02-22T10:10:18.566Z,50.85
2023-02-22T10:13:43.995Z,51.04
2023-02-22T10:17:09.618Z,50.61
2023-02-22T10:20:18.873Z,50.85
2023-02-22T10:23:28.824Z,50.50
2023-02-22T10:26:36.784Z,49.94
2023-02-22T10:29:47.897Z,49.75
2023-02-22T10:33:01.214Z,49.36
2023-02-22T10:36:04.163Z,49.73
2023-02-22T10:39:35.633Z,49.87
2023-02-22T10:42:38.420Z,50.10
2023-02-22T10:45:41.053Z,50.49
2023-02-22T10:48:47.133Z,50.46
2023-02-22T10:52:01.175Z,51.07
2023-02-22T10:55:15.465Z,51.48
2023-02-22T10:58:18.261Z,52.05
2023-02-22T11:01:31.610Z,52.75
2023-02-22T11:04:50.135Z,52.81
2023-02-22T11:08:15.010Z,53.09
2023-02-22T11:11:28.928Z,53.34
2023-02-22T11:14:31.727Z,53.87
2023-02-22T11:17:34.973Z,53.96
2023-02-22T11:20:39.505Z,53.66
2023-02-22T11:23:44.929Z,54.41
2023-02-22T11:26:53.494Z,53.78
2023-02-22T11:30:12.379Z,54.00
2023-02-22T11:33:24.568Z,54.54
2023-02-22T11:36:30.649Z,54.77
2023-02-22T11:39:34.630Z,54.87
2023-02-22T11:42:37.012Z,54.95
2023-02-22T11:45:49.881Z,54.95
2023-02-22T11:49:09.590Z,55.56
2023-02-22T11:52:31.365Z,55.48
2023-02-22T11:55:43.366Z,54.97
2023-02-22T11:58:51.362Z,55.41
2023-02-22T12:01:56.820Z,56.02
2023-02-22T12:05:37.273Z,56.34
2023-02-22T12:08:45.705Z,56.48
2023-02-22T12:12:20.746Z,56.29
2023-02-22T12:15:38.381Z,56.82
2023-02-22T12:18:46.690Z,57.10
2023-02-22T12:21:55.761Z,56.90
2023-02-22T12:25:10.333Z,57.26
2023-02-22T12:28:25.614Z,57.50
2023-02-22T12:31:36.703Z,57.81
2023-02-22T12:34:48.815Z,57.59
2023-02-22T12:38:13.668Z,57.73
2023-02-22T12:41:39.154Z,58.43
2023-02-22T12:44:48.764Z,57.91
2023-02-22T12:48:02.365Z,58.19
2023-02-22T12:51:35.874Z,58.13
2023-02-22T12:54:48.030Z,57.85
2023-02-22T12:58:07.692Z,58.30
2023-02-22T13:01:20.408Z,58.17
2023-02-22T13:04:23.477Z,57.90
2023-02-22T13:07:32.238Z,57.84
2023-02-22T13:11:15.074Z,58.17
2023-02-22T13:14:23.303Z,58.78
2023-02-22T13:18:07.440Z,58.82
2023-02-22T13:21:29.920Z,59.41
2023-02-22T13:24:54.252Z,58.73
2023-02-22T13:28:11.661Z,58.91
2023-02-22T13:31:21.518Z,58.88
2023-02-22T13:34:40.289Z,58.49
2023-02-22T13:37:51.979Z,58.41
2023-02-22T13:41:02.533Z,58.66
2023-02-22T13:44:23.344Z,58.93
2023-02-22T13:47:44.664Z,58.66
2023-02-22T13:51:09.824Z,58.82
2023-02-22T13:54:25.611Z,59.36
2023-02-22T13:57:32.992Z,59.51
2023-02-22T14:00:46.996Z,59.30
2023-02-22T14:03:49.798Z,58.70
2023-02-22T14:06:52.661Z,58.96
2023-02-22T14:10:01.915Z,59.18
2023-02-22T14:13:07.826Z,59.55
2023-02-22T14:16:16.900Z,59.43
2023-02-22T14:19:23.596Z,59.58
2023-02-22T14:22:29.739Z,59.44
2023-02-22T14:25:40.197Z,59.22
2023-02-22T14:29:01.040Z,59.92
2023-02-22T14:32:13.424Z,59.87
2023-02-22T14:35:28.702Z,59.91
2023-02-22T14:38:55.520Z,59.87
2023-02-22T14:43:09.234Z,60.16
2023-02-22T14:46:52.244Z,60.04
2023-02-22T14:50:08.240Z,60.26
2023-02-22T14:53:10.518Z,60.41
2023-02-22T14:56:29.541Z,60.73
2023-02-22T14:59:33.997Z,60.77
2023-02-22T15:02:43.047Z,60.82
2023-02-22T15:05:45.858Z,60.81
2023-02-22T15:08:49.953Z,60.34
2023-02-22T15:11:54.127Z,60.99
2023-02-22T15:15:21.989Z,60.57
2023-02-22T15:18:27.197Z,60.45
2023-02-22T15:21:31.957Z,60.54
2023-02-22T15:24:36.440Z,60.15
2023-02-22T15:27:44.402Z,60.13
2023-02-22T15:30:46.844Z,60.04
2023-02-22T15:33:53.012Z,59.71
2023-02-22T15:36:57.964Z,60.27
2023-02-22T15:40:14.913Z,60.60
2023-02-22T15:43:25.093Z,60.76
2023-02-22T15:46:28.439Z,60.96
2023-02-22T15:49:35.661Z,61.13
2023-02-22T15:52:38.282Z,61.05
2023-02-22T15:55:43.960Z,61.00
2023-02-22T15:58:47.740Z,61.12
2023-02-22T16:01:53.292Z,60.97
2023-02-22T16:05:07.474Z,61.18
2023-02-22T16:08:18.381Z,60.69
2023-02-22T16:11:32.782Z,60.96
2023-02-22T16:14:35.812Z,60.39
2023-02-22T16:17:49.350Z,60.42
2023-02-22T16:21:00.292Z,60.06
2023-02-22T16:24:15.126Z,59.45
2023-02-22T16:27:21.229Z,59.15
2023-02-22T16:30:32.505Z,59.55
2023-02-22T16:33:35.021Z,59.33
2023-02-22T16:36:42.053Z,59.37
2023-02-22T16:39:45.844Z,59.13
2023-02-22T16:42:48.673Z,58.98
2023-02-22T16:45:52.955Z,59.71
2023-02-22T16:48:55.665Z,61.45
2023-02-22T16:52:02.617Z,62.17
2023-02-22T16:55:06.640Z,62.48
2023-02-22T16:58:09.260Z,62.73
2023-02-22T17:01:12.920Z,63.34
2023-02-22T17:04:24.787Z,63.37
2023-02-22T17:07:30.854Z,63.66
2023-02-22T17:10:34.164Z,63.66
2023-02-22T17:13:37.885Z,63.69
2023-02-22T17:16:40.159Z,64.10
2023-02-22T17:19:42.944Z,64.01
2023-02-22T17:22:45.672Z,64.02
2023-02-22T17:26:02.444Z,64.20
2023-02-22T17:29:04.878Z,64.56
2023-02-22T17:32:08.220Z,64.53
2023-02-22T17:35:10.703Z,63.71
2023-02-22T17:38:18.470Z,64.40
2023-02-22T17:41:21.375Z,64.72
2023-02-22T17:44:26.159Z,64.80
2023-02-22T17:47:28.539Z,65.08
2023-02-22T17:50:31.828Z,65.21
2023-02-22T17:53:34.400Z,65.41
2023-02-22T17:56:36.995Z,65.58
2023-02-22T17:59:40.601Z,65.54
2023-02-22T18:02:43.573Z,65.73
2023-02-22T18:05:48.700Z,65.50
2023-02-22T18:08:55.774Z,65.15
2023-02-22T18:11:58.938Z,64.32
2023-02-22T18:15:01.305Z,63.20
2023-02-22T18:18:05.199Z,62.75
2023-02-22T18:21:07.626Z,62.71
2023-02-22T18:24:10.198Z,60.96
2023-02-22T18:27:12.497Z,61.05
2023-02-22T18:30:15.343Z,60.54
2023-02-22T18:33:20.385Z,60.31
2023-02-22T18:36:24.229Z,59.88
2023-02-22T18:39:30.851Z,59.51
2023-02-22T18:42:36.646Z,58.95
2023-02-22T18:45:38.951Z,58.70
2023-02-22T18:48:42.052Z,58.50
2023-02-22T18:51:46.019Z,58.81
2023-02-22T18:54:49.793Z,57.94
2023-02-22T18:57:52.237Z,57.74
2023-02-22T19:00:54.848Z,57.66
2023-02-22T19:03:58.079Z,57.40
2023-02-22T19:07:00.734Z,57.51
2023-02-22T19:10:04.545Z,57.38
2023-02-22T19:13:10.777Z,57.61
2023-02-22T19:16:14.154Z,57.60
2023-02-22T19:19:20.912Z,57.68
2023-02-22T19:22:26.362Z,58.37
2023-02-22T19:25:29.267Z,57.59
2023-02-22T19:28:34.605Z,57.10
2023-02-22T19:31:41.639Z,57.01
2023-02-22T19:34:44.558Z,57.34
2023-02-22T19:37:48.262Z,57.63
2023-02-22T19:40:51.004Z,57.74
2023-02-22T19:43:54.258Z,56.87
2023-02-22T19:46:56.743Z,57.54
2023-02-22T19:50:01.472Z,57.17
2023-02-22T19:53:03.804Z,56.51
2023-02-22T19:56:18.368Z,56.30
2023-02-22T19:59:23.601Z,56.43
2023-02-22T20:02:27.611Z,56.45
2023-02-22T20:05:32.501Z,56.38
2023-02-22T20:08:36.743Z,55.96
2023-02-22T20:11:40.193Z,56.33
2023-02-22T20:14:42.550Z,55.90
2023-02-22T20:17:50.350Z,55.88
2023-02-22T20:20:52.769Z,55.75
2023-02-22T20:23:57.293Z,55.68
2023-02-22T20:26:59.746Z,55.12
2023-02-22T20:30:03.814Z,55.38
2023-02-22T20:33:07.773Z,55.53
2023-02-22T20:36:13.596Z,55.65
2023-02-22T20:39:15.965Z,55.57
2023-02-22T20:42:18.653Z,55.26
2023-02-22T20:45:21.030Z,55.37
2023-02-22T20:48:26.430Z,55.60
2023-02-22T20:51:29.937Z,55.48
2023-02-22T20:54:34.426Z,55.56
2023-02-22T20:57:37.121Z,55.72
2023-02-22T21:00:39.737Z,55.74
2023-02-22T21:03:42.737Z,55.54
2023-02-22T21:06:46.669Z,54.97
2023-02-22T21:09:49.845Z,55.57
2023-02-22T21:12:53.240Z,55.21
2023-02-22T21:15:56.214Z,54.71
2023-02-22T21:19:01.637Z,54.83
2023-02-22T21:22:08.301Z,55.24
2023-02-22T21:25:11.064Z,54.78
2023-02-22T21:28:13.384Z,54.82
2023-02-22T21:31:16.412Z,55.13
2023-02-22T21:34:20.009Z,54.97
2023-02-22T21:37:22.588Z,55.02
2023-02-22T21:40:26.338Z,55.21
2023-02-22T21:43:28.885Z,54.79
2023-02-22T21:46:31.374Z,54.75
2023-02-22T21:49:34.211Z,54.92
2023-02-22T21:52:37.559Z,55.36
2023-02-22T21:55:40.947Z,55.15
2023-02-22T21:58:43.786Z,54.78
2023-02-22T22:01:50.122Z,54.93
2023-02-22T22:04:52.892Z,55.46
2023-02-22T22:07:55.182Z,54.99
2023-02-22T22:10:58.476Z,55.03
2023-02-22T22:14:00.827Z,54.89
2023-02-22T22:17:07.041Z,54.75
2023-02-22T22:20:11.864Z,54.61
2023-02-22T22:23:14.483Z,54.76
2023-02-22T22:26:20.068Z,54.98
2023-02-22T22:29:24.714Z,54.82
2023-02-22T22:32:27.420Z,54.80
2023-02-22T22:35:30.151Z,54.94
2023-02-22T22:38:33.717Z,54.97
2023-02-22T22:41:36.505Z,54.57
2023-02-22T22:44:42.228Z,54.69
2023-02-22T22:47:46.162Z,54.78
2023-02-22T22:51:02.595Z,55.55
2023-02-22T22:54:09.413Z,55.44
2023-02-22T22:57:11.864Z,55.54
2023-02-22T23:00:44.498Z,55.58
2023-02-22T23:03:53.911Z,55.89
2023-02-22T23:06:56.906Z,55.66
2023-02-22T23:09:59.217Z,55.64
2023-02-22T23:13:02.557Z,55.96
2023-02-22T23:16:13.048Z,56.01
2023-02-22T23:19:16.241Z,56.44
2023-02-22T23:22:18.601Z,56.41
2023-02-22T23:25:22.074Z,56.76
2023-02-22T23:28:24.438Z,56.64
2023-02-22T23:31:32.195Z,56.41
2023-02-22T23:34:36.140Z,56.58
2023-02-22T23:37:39.942Z,56.30
2023-02-22T23:40:44.725Z,56.38
2023-02-22T23:43:47.395Z,56.28
2023-02-22T23:46:55.171Z,56.36
2023-02-22T23:49:58.999Z,56.38
2023-02-22T23:53:03.652Z,56.40
2023-02-22T23:56:10.104Z,56.10
2023-02-22T23:59:13.866Z,56.43
